Light Rain Current Weather (METAR) For Innsbruck - Kranebitten Airport

All times on the weather descriptions are local

Observed at 11:50 - (22 mins ago)

Light Rain

16°C

Light Rain
Clouds: Few Clouds at 700ft, Scattered Clouds at 2,000ft, Broken Clouds at 7,000ft
Wind: Variable at 01 knots
Visibility: Greater than 10km
QNH: 1027
Dew Point: 14°C
Runway in Use: Unable to determine, wind is variable

Sunrise Today: 07:12
Sunset Today: 18:55

Forecast Weather (TAF) For Innsbruck - Kranebitten Airport

Issued at 02:00 - (30 days ago)


Runway in Use: Unable to determine, wind is clam

Forecast valid until 02:00 on Friday

METAR/TAF RAW METAR / TAF

LOWI 010950Z VRB01KT 9999 -RA FEW007 SCT020 BKN070 16/14 Q1027 NOSIG

Weather Widget

Put weather from any of our airports on your website with our weather widget.

Find Another Search

Airport Search


Please Wait Please Wait - Loading
Close
Close

Login

Username:

Password:

Remember Me:

Remember me on this computer

Forgotten your password? Get a reset password sent to your registered e-mail address

Close

User Private Message

Subject:

Message: